Time;durP1;ratioP1;P1;durP2;ratioP2;P2;SDS_P1;SDS_P2;PMS_P1;PMS_P2;Temp;Humidity;BMP_temperature;BMP_pressure;BME280_temperature;BME280_humidity;BME280_pressure;Samples;Min_cycle;Max_cycle;Signal;HPM_P1;HPM_P2
2024/01/16 00:00:45;;;;;;;10.03;4.93;;;1.50;99.90;;;;;;5096788;28;20654;-78
2024/01/16 00:03:10;;;;;;;11.53;5.17;;;1.50;99.90;;;;;;5094207;28;20174;-78
2024/01/16 00:05:36;;;;;;;9.17;4.87;;;1.50;99.90;;;;;;5096184;28;20185;-78
2024/01/16 00:08:01;;;;;;;11.70;5.77;;;1.50;99.90;;;;;;5094031;28;20571;-78
2024/01/16 00:10:27;;;;;;;7.40;4.03;;;1.50;99.90;;;;;;5094609;28;20201;-78
2024/01/16 00:12:52;;;;;;;9.10;3.50;;;1.50;99.90;;;;;;5095897;28;20202;-78
2024/01/16 00:15:18;;;;;;;9.53;4.60;;;1.50;99.90;;;;;;5095530;28;20173;-78
2024/01/16 00:17:43;;;;;;;9.33;3.80;;;1.50;99.90;;;;;;5096169;28;20191;-78
2024/01/16 00:20:10;;;;;;;9.03;3.70;;;1.50;99.90;;;;;;5095659;28;20464;-78
2024/01/16 00:22:36;;;;;;;9.87;3.50;;;1.50;99.90;;;;;;5095878;28;20179;-78
2024/01/16 00:25:01;;;;;;;6.17;3.10;;;1.40;99.90;;;;;;5095615;28;20240;-78
2024/01/16 00:27:27;;;;;;;10.03;3.60;;;1.40;99.90;;;;;;5094151;28;20198;-78
2024/01/16 00:29:53;;;;;;;7.67;3.40;;;1.40;99.90;;;;;;5094557;28;20274;-78
2024/01/16 00:32:18;;;;;;;7.77;3.60;;;1.40;99.90;;;;;;5095986;28;20186;-81
2024/01/16 00:34:44;;;;;;;5.43;3.40;;;1.40;99.90;;;;;;5095852;28;20167;-78
2024/01/16 00:37:09;;;;;;;6.40;3.63;;;1.40;99.90;;;;;;5106525;28;20202;-78
2024/01/16 00:39:35;;;;;;;6.17;3.37;;;1.40;99.90;;;;;;5106860;28;20197;-79
2024/01/16 00:42:02;;;;;;;6.97;3.53;;;1.40;99.90;;;;;;5093924;28;20298;-79
2024/01/16 00:44:28;;;;;;;8.50;3.50;;;1.40;99.90;;;;;;5093158;28;20281;-78
2024/01/16 00:46:53;;;;;;;6.07;3.13;;;1.50;99.90;;;;;;5095169;28;20226;-78
2024/01/16 00:49:19;;;;;;;5.17;3.57;;;1.40;99.90;;;;;;5093937;28;20209;-78
2024/01/16 00:51:45;;;;;;;8.00;3.40;;;1.40;99.90;;;;;;5095156;28;20163;-78
2024/01/16 00:54:10;;;;;;;5.93;3.87;;;1.40;99.90;;;;;;5094098;28;20208;-78
2024/01/16 00:56:36;;;;;;;9.33;3.83;;;1.40;99.90;;;;;;5095117;28;20173;-79
2024/01/16 00:59:02;;;;;;;7.47;3.93;;;1.40;99.90;;;;;;5093716;28;20243;-78
2024/01/16 01:01:28;;;;;;;5.43;3.67;;;1.40;99.90;;;;;;5096157;28;20182;-78
2024/01/16 01:03:53;;;;;;;8.07;3.70;;;1.40;99.90;;;;;;5096808;28;20205;-79
2024/01/16 01:06:19;;;;;;;6.63;3.97;;;1.40;99.90;;;;;;5094874;28;20204;-78
2024/01/16 01:08:44;;;;;;;17.10;4.93;;;1.40;99.90;;;;;;5093116;28;20198;-78
2024/01/16 01:11:11;;;;;;;6.40;3.90;;;1.40;99.90;;;;;;5093013;28;20227;-79
2024/01/16 01:13:37;;;;;;;9.00;4.30;;;1.40;99.90;;;;;;5094712;28;20232;-78
2024/01/16 01:16:02;;;;;;;7.50;4.33;;;1.40;99.90;;;;;;5094632;28;20189;-78
2024/01/16 01:18:28;;;;;;;6.27;3.93;;;1.40;99.90;;;;;;5093276;28;20198;-81
2024/01/16 01:20:53;;;;;;;6.87;4.57;;;1.40;99.90;;;;;;5093624;28;20641;-78
2024/01/16 01:23:19;;;;;;;11.23;4.17;;;1.40;99.90;;;;;;5092907;28;20187;-79
2024/01/16 01:25:45;;;;;;;9.77;5.37;;;1.40;99.90;;;;;;5093093;28;20293;-79
2024/01/16 01:28:11;;;;;;;7.90;4.23;;;1.40;99.90;;;;;;5094462;28;20536;-79
2024/01/16 01:30:37;;;;;;;10.30;5.07;;;1.40;99.90;;;;;;5093089;28;20178;-79
2024/01/16 01:33:03;;;;;;;10.37;5.17;;;1.40;99.90;;;;;;5094108;28;20210;-78
2024/01/16 01:35:29;;;;;;;7.07;6.03;;;1.40;99.90;;;;;;5093952;28;20179;-78
2024/01/16 01:37:54;;;;;;;12.23;6.73;;;1.40;99.90;;;;;;5093198;28;20194;-79
2024/01/16 01:40:21;;;;;;;12.83;7.90;;;1.40;99.90;;;;;;5092852;28;20269;-78
2024/01/16 01:42:46;;;;;;;10.83;7.63;;;1.40;99.90;;;;;;5092302;28;20186;-78
2024/01/16 01:45:12;;;;;;;13.83;8.67;;;1.50;99.90;;;;;;5092381;28;20630;-78
2024/01/16 01:47:39;;;;;;;12.73;8.97;;;1.50;99.90;;;;;;5092476;28;20194;-78
2024/01/16 01:50:06;;;;;;;13.00;9.03;;;1.40;99.90;;;;;;5092984;28;20208;-78
2024/01/16 01:52:33;;;;;;;14.37;9.93;;;1.40;99.90;;;;;;5092904;28;20197;-78
2024/01/16 01:54:59;;;;;;;12.90;9.10;;;1.40;99.90;;;;;;5094636;28;20177;-77
2024/01/16 01:57:24;;;;;;;15.70;9.70;;;1.40;99.90;;;;;;5095740;28;20198;-78
2024/01/16 01:59:50;;;;;;;16.17;8.67;;;1.40;99.90;;;;;;5096935;28;20231;-78
2024/01/16 02:02:16;;;;;;;13.23;9.57;;;1.40;99.90;;;;;;5095619;28;20555;-77
2024/01/16 02:04:44;;;;;;;13.27;10.20;;;1.50;99.90;;;;;;5095800;28;20599;-77
2024/01/16 02:07:10;;;;;;;13.87;9.33;;;1.50;99.90;;;;;;5097063;28;20688;-78
2024/01/16 02:09:35;;;;;;;11.67;9.50;;;1.40;99.90;;;;;;5097483;28;20167;-79
2024/01/16 02:12:01;;;;;;;16.27;10.40;;;1.40;99.90;;;;;;5096568;28;20200;-79
2024/01/16 02:14:27;;;;;;;16.70;11.20;;;1.40;99.90;;;;;;5097572;28;20202;-78
2024/01/16 02:16:53;;;;;;;13.07;10.60;;;1.40;99.90;;;;;;5096715;28;20273;-78
2024/01/16 02:19:18;;;;;;;18.13;12.03;;;1.40;99.90;;;;;;5097847;28;20206;-78
2024/01/16 02:21:51;;;;;;;12.77;11.47;;;1.40;99.90;;;;;;5098045;28;20638;-78
2024/01/16 02:24:17;;;;;;;17.40;12.33;;;1.40;99.90;;;;;;5097318;28;20214;-77
2024/01/16 02:26:43;;;;;;;14.83;12.10;;;1.40;99.90;;;;;;5096390;28;20174;-78
2024/01/16 02:29:09;;;;;;;17.20;12.40;;;1.40;99.90;;;;;;5097873;28;20199;-79
2024/01/16 02:31:35;;;;;;;19.97;12.50;;;1.50;99.90;;;;;;5097645;28;20649;-78
2024/01/16 02:34:01;;;;;;;16.93;11.63;;;1.40;99.90;;;;;;5097113;28;20577;-79
2024/01/16 02:36:27;;;;;;;14.53;12.13;;;1.50;99.90;;;;;;5096433;28;20167;-78
2024/01/16 02:38:53;;;;;;;15.50;12.23;;;1.40;99.90;;;;;;5096290;28;20279;-78
2024/01/16 02:41:19;;;;;;;13.27;11.43;;;1.50;99.90;;;;;;5097264;28;20194;-78
2024/01/16 02:43:45;;;;;;;18.70;12.60;;;1.50;99.90;;;;;;5097336;28;20175;-78
2024/01/16 02:46:10;;;;;;;17.87;11.83;;;1.50;99.90;;;;;;5096940;28;20251;-79
2024/01/16 02:48:36;;;;;;;18.57;12.10;;;1.50;99.90;;;;;;5095699;28;20316;-78
2024/01/16 02:51:03;;;;;;;16.40;12.77;;;1.50;99.90;;;;;;5095341;28;20240;-78
2024/01/16 02:53:31;;;;;;;16.30;12.83;;;1.50;99.90;;;;;;5095823;28;20236;-79
2024/01/16 02:56:00;;;;;;;18.53;13.73;;;1.50;99.90;;;;;;5097078;28;20257;-79
2024/01/16 02:58:30;;;;;;;17.17;12.70;;;1.50;99.90;;;;;;5097027;28;20244;-77
2024/01/16 03:00:57;;;;;;;20.53;12.73;;;1.50;99.90;;;;;;5096626;28;20166;-78
2024/01/16 03:03:22;;;;;;;20.33;13.63;;;1.50;99.90;;;;;;5095380;28;20558;-78
2024/01/16 03:05:48;;;;;;;18.43;12.50;;;1.50;99.90;;;;;;5095234;28;20231;-78
2024/01/16 03:08:14;;;;;;;17.83;12.63;;;1.50;99.90;;;;;;5095022;28;20213;-78
2024/01/16 03:10:40;;;;;;;16.37;11.80;;;1.50;99.90;;;;;;5097207;28;20170;-79
2024/01/16 03:13:05;;;;;;;14.27;12.07;;;1.50;99.90;;;;;;5096104;28;20201;-79
2024/01/16 03:15:31;;;;;;;19.07;13.33;;;1.50;99.90;;;;;;5103066;28;20550;-78
2024/01/16 03:18:00;;;;;;;17.63;12.87;;;1.50;99.90;;;;;;5106248;28;20210;-78
2024/01/16 03:20:27;;;;;;;21.77;13.07;;;1.50;99.90;;;;;;5100057;28;20185;-79
2024/01/16 03:22:53;;;;;;;19.20;13.47;;;1.50;99.90;;;;;;5095352;28;20315;-79
2024/01/16 03:25:19;;;;;;;16.93;13.03;;;1.50;99.90;;;;;;5094931;28;20166;-78
2024/01/16 03:27:44;;;;;;;22.00;14.27;;;1.50;99.90;;;;;;5094794;28;20225;-78
2024/01/16 03:30:11;;;;;;;23.23;14.20;;;1.50;99.90;;;;;;5096381;28;20232;-79
2024/01/16 03:32:37;;;;;;;18.13;14.13;;;1.50;99.90;;;;;;5096481;28;20677;-79
2024/01/16 03:35:03;;;;;;;22.30;13.87;;;1.50;99.90;;;;;;5096620;28;20661;-78
2024/01/16 03:37:29;;;;;;;20.43;14.73;;;1.50;99.90;;;;;;5095174;28;20190;-78
2024/01/16 03:39:54;;;;;;;18.20;14.13;;;1.50;99.90;;;;;;5095968;28;20546;-79
2024/01/16 03:42:20;;;;;;;17.70;13.40;;;1.50;99.90;;;;;;5096337;28;20171;-78
2024/01/16 03:44:46;;;;;;;16.53;12.50;;;1.50;99.90;;;;;;5096457;28;20614;-78
2024/01/16 03:47:12;;;;;;;17.47;12.83;;;1.50;99.90;;;;;;5096349;28;20252;-79
2024/01/16 03:49:38;;;;;;;17.17;12.27;;;1.50;99.90;;;;;;5096121;28;20193;-77
2024/01/16 03:52:03;;;;;;;17.83;12.47;;;1.50;99.90;;;;;;5094211;28;20308;-79
2024/01/16 03:54:29;;;;;;;19.10;12.37;;;1.50;99.90;;;;;;5094585;28;20193;-78
2024/01/16 03:56:55;;;;;;;16.27;11.90;;;1.50;99.90;;;;;;5096089;28;20179;-78
2024/01/16 03:59:21;;;;;;;16.53;12.10;;;1.50;99.90;;;;;;5094219;28;20171;-78
2024/01/16 04:01:47;;;;;;;16.43;11.17;;;1.50;99.90;;;;;;5096527;28;20579;-79
2024/01/16 04:04:13;;;;;;;17.30;11.27;;;1.50;99.90;;;;;;5094100;28;20176;-78
2024/01/16 04:06:38;;;;;;;18.30;10.53;;;1.40;99.90;;;;;;5095784;28;20174;-78
2024/01/16 04:09:08;;;;;;;17.10;11.37;;;1.40;99.90;;;;;;5094127;28;20718;-78
2024/01/16 04:11:33;;;;;;;12.47;10.77;;;1.40;99.90;;;;;;5094219;28;20238;-78
2024/01/16 04:14:00;;;;;;;12.13;10.23;;;1.40;99.90;;;;;;5093690;28;20288;-81
2024/01/16 04:16:25;;;;;;;15.77;10.07;;;1.40;99.90;;;;;;5093822;28;20166;-78
2024/01/16 04:18:51;;;;;;;11.20;8.60;;;1.50;99.90;;;;;;5095404;28;20566;-78
2024/01/16 04:21:16;;;;;;;15.40;9.03;;;1.40;99.90;;;;;;5093548;28;20254;-77
2024/01/16 04:23:42;;;;;;;12.40;8.43;;;1.50;99.90;;;;;;5093690;28;20186;-78
2024/01/16 04:26:08;;;;;;;11.97;8.13;;;1.50;99.90;;;;;;5093883;28;20171;-78
2024/01/16 04:28:33;;;;;;;10.73;7.67;;;1.50;99.90;;;;;;5093043;28;20229;-78
2024/01/16 04:31:01;;;;;;;7.97;6.60;;;1.50;99.90;;;;;;5092741;28;20548;-77
2024/01/16 04:33:27;;;;;;;11.23;7.57;;;1.50;99.90;;;;;;5094009;28;20206;-77
2024/01/16 04:35:52;;;;;;;11.73;7.60;;;1.50;99.90;;;;;;5094320;28;20177;-78
2024/01/16 04:38:18;;;;;;;10.60;7.80;;;1.50;99.90;;;;;;5092649;28;20281;-78
2024/01/16 04:40:43;;;;;;;12.77;7.03;;;1.50;99.90;;;;;;5094219;28;20249;-78
2024/01/16 04:43:09;;;;;;;14.07;7.67;;;1.50;99.90;;;;;;5092927;28;20638;-78
2024/01/16 04:45:34;;;;;;;12.63;6.70;;;1.50;99.90;;;;;;5094950;28;20257;-78
2024/01/16 04:48:00;;;;;;;10.23;8.20;;;1.50;99.90;;;;;;5092895;28;20288;-78
2024/01/16 04:50:31;;;;;;;9.33;7.47;;;1.50;99.90;;;;;;5094380;28;20269;-78
2024/01/16 04:53:00;;;;;;;10.53;7.43;;;1.40;99.90;;;;;;5094531;28;20301;-77
2024/01/16 04:55:29;;;;;;;9.60;7.40;;;1.40;99.90;;;;;;5094522;28;20674;-76
2024/01/16 04:57:55;;;;;;;9.80;7.20;;;1.40;99.90;;;;;;5093031;28;20191;-78
2024/01/16 05:00:21;;;;;;;10.17;6.53;;;1.40;99.90;;;;;;5092777;28;20269;-78
2024/01/16 05:02:47;;;;;;;9.80;6.67;;;1.40;99.90;;;;;;5094680;28;20228;-78
2024/01/16 05:05:13;;;;;;;10.70;7.10;;;1.40;99.90;;;;;;5093157;28;20571;-77
2024/01/16 05:07:39;;;;;;;9.00;7.30;;;1.40;99.90;;;;;;5093332;28;20209;-78
2024/01/16 05:10:06;;;;;;;11.33;8.03;;;1.40;99.90;;;;;;5093247;28;20183;-79
2024/01/16 05:12:31;;;;;;;11.37;8.33;;;1.40;99.90;;;;;;5093900;28;20550;-78
2024/01/16 05:14:57;;;;;;;12.23;9.03;;;1.40;99.90;;;;;;5093050;28;20257;-78
2024/01/16 05:17:23;;;;;;;12.13;9.13;;;1.40;99.90;;;;;;5093412;28;20192;-78
2024/01/16 05:19:48;;;;;;;11.57;9.23;;;1.30;99.90;;;;;;5092788;28;20178;-78
2024/01/16 05:22:15;;;;;;;13.20;8.60;;;1.30;99.90;;;;;;5093032;28;20181;-78
2024/01/16 05:24:40;;;;;;;13.93;8.90;;;1.30;99.90;;;;;;5094479;28;20177;-78
2024/01/16 05:27:06;;;;;;;12.30;9.67;;;1.30;99.90;;;;;;5092495;28;20542;-78
2024/01/16 05:29:31;;;;;;;12.53;9.97;;;1.30;99.90;;;;;;5093639;28;20627;-78
2024/01/16 05:31:57;;;;;;;17.33;10.50;;;1.30;99.90;;;;;;5095755;28;20204;-77
2024/01/16 05:34:23;;;;;;;13.70;10.97;;;1.30;99.90;;;;;;5093697;28;20213;-77
2024/01/16 05:36:48;;;;;;;14.17;10.97;;;1.30;99.90;;;;;;5092556;28;20200;-79
2024/01/16 05:39:14;;;;;;;20.37;11.70;;;1.20;99.90;;;;;;5091826;28;20662;-78
2024/01/16 05:41:40;;;;;;;18.77;11.73;;;1.20;99.90;;;;;;5093937;28;20178;-78
2024/01/16 05:44:05;;;;;;;16.53;10.90;;;1.30;99.90;;;;;;5092422;28;20208;-78
2024/01/16 05:46:32;;;;;;;15.70;10.80;;;1.20;99.90;;;;;;5092309;28;20178;-78
2024/01/16 05:48:57;;;;;;;14.13;11.63;;;1.20;99.90;;;;;;5093630;28;20611;-77
2024/01/16 05:51:23;;;;;;;18.73;11.87;;;1.20;99.90;;;;;;5094632;28;20227;-78
2024/01/16 05:53:49;;;;;;;17.67;12.40;;;1.10;99.90;;;;;;5093977;28;20233;-78
2024/01/16 05:56:14;;;;;;;17.10;11.87;;;1.10;99.90;;;;;;5092411;28;20548;-78
2024/01/16 05:58:40;;;;;;;15.90;11.33;;;1.10;99.90;;;;;;5093874;28;20198;-78
2024/01/16 06:01:05;;;;;;;16.50;11.67;;;1.10;99.90;;;;;;5098038;28;20174;-78
2024/01/16 06:03:31;;;;;;;22.27;11.87;;;1.10;99.90;;;;;;5107256;28;20181;-78
2024/01/16 06:05:56;;;;;;;18.10;11.60;;;1.00;99.90;;;;;;5112110;28;20179;-78
2024/01/16 06:08:22;;;;;;;18.43;11.30;;;1.00;99.90;;;;;;5103604;28;20305;-77
2024/01/16 06:10:47;;;;;;;20.13;10.93;;;1.00;99.90;;;;;;5092928;28;20213;-76
2024/01/16 06:13:13;;;;;;;15.47;10.03;;;1.00;99.90;;;;;;5092241;28;20727;-76
2024/01/16 06:15:38;;;;;;;22.40;10.50;;;1.00;99.90;;;;;;5091725;28;20650;-77
2024/01/16 06:18:04;;;;;;;19.10;9.77;;;1.00;99.90;;;;;;5091969;28;20201;-77
2024/01/16 06:20:30;;;;;;;15.23;8.80;;;0.90;99.90;;;;;;5092101;28;20257;-77
2024/01/16 06:22:56;;;;;;;16.07;9.17;;;0.90;99.90;;;;;;5093422;28;20178;-76
2024/01/16 06:25:22;;;;;;;20.20;8.50;;;0.90;99.90;;;;;;5092241;28;20170;-77
2024/01/16 06:27:47;;;;;;;20.53;8.33;;;0.90;99.90;;;;;;5093780;28;20273;-77
2024/01/16 06:30:13;;;;;;;11.77;7.07;;;0.90;99.90;;;;;;5092282;28;20175;-77
2024/01/16 06:32:39;;;;;;;15.53;7.50;;;0.80;99.90;;;;;;5093308;28;20335;-77
2024/01/16 06:35:05;;;;;;;25.03;7.13;;;0.80;99.90;;;;;;5092752;28;20173;-78
2024/01/16 06:37:31;;;;;;;15.20;6.73;;;0.70;99.90;;;;;;5092080;28;20190;-76
2024/01/16 06:39:57;;;;;;;14.83;7.33;;;0.70;99.90;;;;;;5094159;28;20519;-77
2024/01/16 06:42:22;;;;;;;17.77;7.13;;;0.70;99.90;;;;;;5094749;28;20170;-78
2024/01/16 06:44:48;;;;;;;15.50;6.83;;;0.70;99.90;;;;;;5097709;28;20167;-77
2024/01/16 06:47:13;;;;;;;18.83;6.60;;;0.70;99.90;;;;;;5096064;28;20178;-78
2024/01/16 06:49:39;;;;;;;15.17;7.10;;;0.70;99.90;;;;;;5095833;28;20534;-77
2024/01/16 06:52:06;;;;;;;11.27;5.90;;;0.70;99.90;;;;;;5096108;28;20177;-78
2024/01/16 06:54:31;;;;;;;13.50;5.53;;;0.70;99.90;;;;;;5098627;28;20280;-78
2024/01/16 06:56:57;;;;;;;16.37;6.27;;;0.60;99.90;;;;;;5098100;28;20557;-78
2024/01/16 06:59:22;;;;;;;11.27;5.47;;;0.60;99.90;;;;;;5096616;28;20166;-76
2024/01/16 07:01:48;;;;;;;18.73;5.80;;;0.60;99.90;;;;;;5095456;28;20231;-77
2024/01/16 07:04:14;;;;;;;16.37;5.37;;;0.50;99.90;;;;;;5095364;28;20171;-78
2024/01/16 07:06:40;;;;;;;15.77;5.13;;;0.50;99.90;;;;;;5095137;28;20336;-77
2024/01/16 07:09:06;;;;;;;14.40;5.77;;;0.50;99.90;;;;;;5101619;28;20194;-78
2024/01/16 07:11:31;;;;;;;10.20;4.97;;;0.50;99.90;;;;;;5111452;28;20181;-77
2024/01/16 07:13:57;;;;;;;11.17;5.13;;;0.50;99.90;;;;;;5111643;28;20202;-78
2024/01/16 07:16:22;;;;;;;9.93;4.77;;;0.50;99.90;;;;;;5101456;28;20174;-78
2024/01/16 07:18:48;;;;;;;11.40;4.50;;;0.50;99.90;;;;;;5096600;28;20190;-78
2024/01/16 07:21:18;;;;;;;12.07;4.27;;;0.50;99.90;;;;;;5096683;28;20174;-77
2024/01/16 07:23:44;;;;;;;14.70;5.10;;;0.50;99.90;;;;;;5096861;28;20174;-78
2024/01/16 07:26:09;;;;;;;12.60;4.47;;;0.50;99.90;;;;;;5096481;28;20578;-78
2024/01/16 07:28:35;;;;;;;10.80;5.30;;;0.50;99.90;;;;;;5095240;28;20209;-78
2024/01/16 07:31:00;;;;;;;14.17;4.83;;;0.50;99.90;;;;;;5095473;28;20185;-77
2024/01/16 07:33:26;;;;;;;12.13;4.80;;;0.50;99.90;;;;;;5096179;28;20300;-78
2024/01/16 07:35:52;;;;;;;24.77;5.20;;;0.40;99.90;;;;;;5094897;28;20179;-78
2024/01/16 07:38:18;;;;;;;15.70;5.60;;;0.50;99.90;;;;;;5097020;28;20195;-77
2024/01/16 07:40:44;;;;;;;10.10;4.57;;;0.50;99.90;;;;;;5097634;28;20538;-78
2024/01/16 07:43:09;;;;;;;9.30;4.70;;;0.50;99.90;;;;;;5096775;28;20182;-78
2024/01/16 07:45:35;;;;;;;12.37;4.73;;;0.50;99.90;;;;;;5097468;28;20174;-78
2024/01/16 07:48:00;;;;;;;15.17;4.30;;;0.40;99.90;;;;;;5096886;28;20209;-78
2024/01/16 07:50:26;;;;;;;10.60;3.83;;;0.50;99.90;;;;;;5094292;28;20188;-78
2024/01/16 07:52:51;;;;;;;13.10;4.27;;;0.50;99.90;;;;;;5095811;28;20307;-77
2024/01/16 07:55:18;;;;;;;9.90;3.97;;;0.50;99.90;;;;;;5095508;28;20533;-78
2024/01/16 07:57:44;;;;;;;14.93;4.00;;;0.50;99.90;;;;;;5095827;28;20642;-78
2024/01/16 08:00:11;;;;;;;10.13;3.33;;;0.40;99.90;;;;;;5094296;28;20265;-78
2024/01/16 08:02:38;;;;;;;14.83;4.03;;;0.40;99.90;;;;;;5094630;28;20178;-77
2024/01/16 08:05:04;;;;;;;11.93;3.67;;;0.50;99.90;;;;;;5095221;28;20186;-78
2024/01/16 08:07:30;;;;;;;15.10;3.60;;;0.50;99.90;;;;;;5093991;28;20201;-78
2024/01/16 08:09:56;;;;;;;14.13;3.27;;;0.50;99.90;;;;;;5095533;28;20286;-78
2024/01/16 08:12:21;;;;;;;12.10;3.57;;;0.50;99.90;;;;;;5094769;28;20188;-78
2024/01/16 08:14:47;;;;;;;12.53;3.50;;;0.50;99.90;;;;;;5096854;28;20287;-78
2024/01/16 08:17:12;;;;;;;6.17;3.23;;;0.50;99.90;;;;;;5095695;28;20238;-78
2024/01/16 08:19:38;;;;;;;8.63;3.70;;;0.50;99.90;;;;;;5095226;28;20203;-77
2024/01/16 08:22:04;;;;;;;10.10;3.10;;;0.50;99.90;;;;;;5094477;28;20627;-78
2024/01/16 08:24:29;;;;;;;9.63;3.40;;;0.60;99.90;;;;;;5097205;28;20254;-79
2024/01/16 08:26:57;;;;;;;9.77;3.60;;;0.60;99.90;;;;;;5097761;28;20210;-79
2024/01/16 08:29:26;;;;;;;11.93;3.33;;;0.60;99.90;;;;;;5095590;28;20178;-78
2024/01/16 08:31:52;;;;;;;10.53;3.27;;;0.60;99.90;;;;;;5093491;28;20174;-78
2024/01/16 08:34:18;;;;;;;15.57;3.43;;;0.60;99.90;;;;;;5096048;28;20190;-77
2024/01/16 08:36:44;;;;;;;6.93;2.80;;;0.70;99.90;;;;;;5110651;28;20598;-77
2024/01/16 08:39:10;;;;;;;8.90;2.87;;;0.60;99.90;;;;;;5109470;28;20194;-78
2024/01/16 08:41:36;;;;;;;11.23;3.47;;;0.60;99.90;;;;;;5107890;28;20630;-78
2024/01/16 08:44:01;;;;;;;7.60;3.93;;;0.60;99.90;;;;;;5094463;28;20611;-77
2024/01/16 08:46:27;;;;;;;10.00;3.53;;;0.70;99.90;;;;;;5093554;28;20182;-79
2024/01/16 08:48:52;;;;;;;10.23;3.63;;;0.70;99.90;;;;;;5095588;28;20209;-78
2024/01/16 08:51:18;;;;;;;13.73;3.37;;;0.70;99.90;;;;;;5096122;28;20278;-78
2024/01/16 08:53:43;;;;;;;11.67;4.23;;;0.70;99.90;;;;;;5094908;28;20198;-79
2024/01/16 08:56:09;;;;;;;10.97;4.07;;;0.70;99.90;;;;;;5095369;28;20638;-79
2024/01/16 08:58:38;;;;;;;6.83;3.30;;;0.70;99.90;;;;;;5097272;28;20189;-79
2024/01/16 09:01:06;;;;;;;8.80;3.43;;;0.70;99.90;;;;;;5096944;28;20672;-79
2024/01/16 09:03:36;;;;;;;11.07;3.40;;;0.70;99.90;;;;;;5094895;28;20178;-78
2024/01/16 09:06:02;;;;;;;11.03;2.97;;;0.70;99.90;;;;;;5094436;28;20174;-78
2024/01/16 09:08:28;;;;;;;10.10;3.70;;;0.70;99.90;;;;;;5095137;28;20225;-79
2024/01/16 09:10:54;;;;;;;7.13;3.50;;;0.80;99.90;;;;;;5094803;28;20573;-78
2024/01/16 09:13:20;;;;;;;7.70;3.83;;;0.70;99.90;;;;;;5093600;28;20213;-79
2024/01/16 09:15:47;;;;;;;10.60;3.30;;;0.80;99.90;;;;;;5094704;28;20709;-77
2024/01/16 09:18:13;;;;;;;11.33;3.93;;;0.70;99.90;;;;;;5095115;28;20541;-78
2024/01/16 09:20:39;;;;;;;12.77;4.00;;;0.80;99.90;;;;;;5094627;28;20167;-78
2024/01/16 09:23:04;;;;;;;15.73;4.33;;;0.80;99.90;;;;;;5093330;28;20658;-79
2024/01/16 09:25:30;;;;;;;8.77;3.03;;;0.80;99.90;;;;;;5092829;28;20252;-79
2024/01/16 09:27:55;;;;;;;15.30;3.97;;;0.90;99.90;;;;;;5094663;28;20194;-78
2024/01/16 09:30:22;;;;;;;11.33;3.37;;;0.90;99.90;;;;;;5094253;28;20178;-78
2024/01/16 09:32:49;;;;;;;10.00;3.20;;;0.90;99.90;;;;;;5092861;28;20662;-78
2024/01/16 09:35:15;;;;;;;10.07;3.80;;;0.90;99.90;;;;;;5094636;28;20194;-78
2024/01/16 09:37:41;;;;;;;9.83;2.87;;;0.90;99.90;;;;;;5094704;28;20203;-79
2024/01/16 09:40:07;;;;;;;10.90;3.53;;;0.90;99.90;;;;;;5094353;28;20263;-78
2024/01/16 09:42:33;;;;;;;13.67;3.63;;;1.00;99.90;;;;;;5093209;28;20261;-78
2024/01/16 09:45:02;;;;;;;9.47;3.17;;;1.00;99.90;;;;;;5093299;28;20198;-77
2024/01/16 09:47:31;;;;;;;18.50;4.10;;;1.00;99.90;;;;;;5094229;28;20201;-78
2024/01/16 09:49:59;;;;;;;8.93;2.90;;;1.00;99.90;;;;;;5094589;28;20170;-78
2024/01/16 09:52:25;;;;;;;7.83;3.10;;;1.00;99.90;;;;;;5094859;28;20171;-79
2024/01/16 09:54:51;;;;;;;10.77;4.03;;;1.00;99.90;;;;;;5096503;28;20317;-78
2024/01/16 09:57:22;;;;;;;9.00;3.67;;;1.10;99.90;;;;;;5104033;28;20185;-79
2024/01/16 09:59:48;;;;;;;7.70;3.37;;;1.00;99.90;;;;;;5101406;28;20154;-78
2024/01/16 10:02:14;;;;;;;7.77;3.60;;;1.10;99.90;;;;;;5092718;28;20189;-78
2024/01/16 10:04:41;;;;;;;11.47;3.93;;;1.10;99.90;;;;;;5095590;28;20174;-79
2024/01/16 10:07:09;;;;;;;11.50;3.27;;;1.10;99.90;;;;;;5094662;28;20181;-79
2024/01/16 10:09:35;;;;;;;8.30;3.07;;;1.10;99.90;;;;;;5093635;28;20186;-78
2024/01/16 10:12:02;;;;;;;9.17;4.50;;;1.20;99.90;;;;;;5092595;28;20178;-78
2024/01/16 10:14:29;;;;;;;8.47;3.30;;;1.10;99.90;;;;;;5092394;28;20321;-78
2024/01/16 10:16:59;;;;;;;10.13;3.97;;;1.20;99.90;;;;;;5108030;28;20226;-78
2024/01/16 10:19:26;;;;;;;9.63;3.93;;;1.20;99.90;;;;;;5107899;28;20189;-79
2024/01/16 10:21:51;;;;;;;13.87;4.17;;;1.20;99.90;;;;;;5102620;28;20645;-79
2024/01/16 10:24:17;;;;;;;10.23;3.57;;;1.30;99.90;;;;;;5097051;28;20309;-79
2024/01/16 10:26:43;;;;;;;12.13;3.93;;;1.30;99.90;;;;;;5097757;28;20189;-78
2024/01/16 10:29:09;;;;;;;10.23;3.60;;;1.30;99.90;;;;;;5096841;28;20695;-78
2024/01/16 10:31:34;;;;;;;12.03;3.83;;;1.40;99.90;;;;;;5096493;28;20264;-77
2024/01/16 10:34:00;;;;;;;11.10;3.53;;;1.40;99.90;;;;;;5097736;28;20222;-78
2024/01/16 10:36:26;;;;;;;10.07;3.87;;;1.40;99.90;;;;;;5096372;28;20192;-78
2024/01/16 10:38:57;;;;;;;8.77;3.43;;;1.50;99.90;;;;;;5097356;28;20257;-78
2024/01/16 10:41:26;;;;;;;8.13;3.50;;;1.50;99.90;;;;;;5096432;28;20170;-77
2024/01/16 10:44:07;;;;;;;8.63;3.63;;;1.50;99.90;;;;;;5096287;28;20181;-78
2024/01/16 10:46:32;;;;;;;9.33;3.20;;;1.50;99.90;;;;;;5096183;28;20242;-78
2024/01/16 10:49:00;;;;;;;11.10;4.23;;;1.40;99.90;;;;;;5096326;28;20198;-78
2024/01/16 10:51:27;;;;;;;11.30;3.57;;;1.50;99.90;;;;;;5096101;28;20181;-78
2024/01/16 10:53:57;;;;;;;8.47;3.83;;;1.40;99.90;;;;;;5095701;28;20197;-78
2024/01/16 10:56:23;;;;;;;9.30;3.80;;;1.50;99.90;;;;;;5097508;28;20253;-77
2024/01/16 10:58:57;;;;;;;7.00;3.20;;;1.50;99.90;;;;;;5095739;28;20187;-77
2024/01/16 11:01:24;;;;;;;10.33;3.70;;;1.50;99.90;;;;;;5096063;28;20173;-77
2024/01/16 11:03:50;;;;;;;10.87;3.73;;;1.40;99.90;;;;;;5097061;28;20175;-78
2024/01/16 11:06:17;;;;;;;10.70;3.67;;;1.50;99.90;;;;;;5096883;28;20169;-78
2024/01/16 11:08:46;;;;;;;10.10;3.60;;;1.50;99.90;;;;;;5095599;28;20195;-78
2024/01/16 11:11:13;;;;;;;17.13;4.10;;;1.50;99.90;;;;;;5096881;28;20576;-78
2024/01/16 11:13:40;;;;;;;12.60;4.10;;;1.50;99.90;;;;;;5096518;28;20204;-78
2024/01/16 11:16:07;;;;;;;9.97;3.50;;;1.50;99.90;;;;;;5097272;28;20293;-78
2024/01/16 11:18:34;;;;;;;10.03;3.97;;;1.40;99.90;;;;;;5095734;28;20232;-78
2024/01/16 11:21:01;;;;;;;10.70;3.83;;;1.50;99.90;;;;;;5095533;28;20185;-77
2024/01/16 11:23:27;;;;;;;7.77;3.63;;;1.50;99.90;;;;;;5096901;28;20249;-78
2024/01/16 11:25:52;;;;;;;10.30;3.53;;;1.60;99.90;;;;;;5096477;28;20198;-77
2024/01/16 11:28:19;;;;;;;7.87;3.57;;;1.60;99.90;;;;;;5096171;28;20201;-78
2024/01/16 11:30:45;;;;;;;9.87;3.73;;;1.70;99.90;;;;;;5097271;28;20170;-78
2024/01/16 11:33:33;;;;;;;12.47;4.23;;;1.70;99.90;;;;;;5095057;28;20256;-77
2024/01/16 11:35:59;;;;;;;16.43;3.80;;;1.80;99.90;;;;;;5096755;28;20486;-78
2024/01/16 11:38:29;;;;;;;13.27;3.80;;;1.80;99.90;;;;;;5095489;28;20280;-78
2024/01/16 11:40:55;;;;;;;9.07;3.80;;;1.90;99.90;;;;;;5095403;28;20593;-78
2024/01/16 11:43:32;;;;;;;8.07;3.87;;;2.00;99.90;;;;;;5096927;28;20184;-78
2024/01/16 11:45:59;;;;;;;9.40;3.80;;;2.00;99.90;;;;;;5095096;28;20196;-78
2024/01/16 11:48:25;;;;;;;9.40;3.73;;;2.00;99.90;;;;;;5096799;28;20198;-78
2024/01/16 11:50:52;;;;;;;12.33;3.33;;;2.00;99.90;;;;;;5096676;28;20178;-78
2024/01/16 11:53:38;;;;;;;9.57;4.13;;;2.10;99.90;;;;;;5095386;28;20552;-78
2024/01/16 11:56:19;;;;;;;5.73;2.90;;;2.00;99.90;;;;;;5096445;28;20167;-78
2024/01/16 11:59:12;;;;;;;10.53;3.87;;;2.00;99.90;;;;;;5096801;28;20190;-78
2024/01/16 12:01:41;;;;;;;10.67;3.33;;;2.00;99.90;;;;;;5098807;28;20155;-78
2024/01/16 12:04:08;;;;;;;8.10;3.27;;;2.10;99.90;;;;;;5101225;28;20165;-78
2024/01/16 12:06:35;;;;;;;10.80;3.53;;;2.00;99.90;;;;;;5096642;28;20630;-78
2024/01/16 12:09:15;;;;;;;9.20;3.73;;;2.00;99.90;;;;;;5094977;28;20259;-77
2024/01/16 12:11:47;;;;;;;10.17;4.07;;;2.00;99.90;;;;;;5096913;28;20307;-78
2024/01/16 12:14:13;;;;;;;7.37;3.67;;;2.10;99.90;;;;;;5096798;28;20233;-78
2024/01/16 12:16:38;;;;;;;12.40;3.83;;;2.10;99.90;;;;;;5101832;28;20540;-78
2024/01/16 12:19:08;;;;;;;11.17;3.70;;;2.10;99.90;;;;;;5101847;28;20186;-77
2024/01/16 12:21:41;;;;;;;10.43;4.00;;;2.10;99.90;;;;;;5103863;28;20188;-77
2024/01/16 12:24:07;;;;;;;14.80;4.03;;;2.10;99.90;;;;;;5104882;28;20186;-78
2024/01/16 12:26:33;;;;;;;9.20;3.87;;;2.20;99.90;;;;;;5104908;28;20200;-78
2024/01/16 12:28:58;;;;;;;9.43;3.50;;;2.30;99.90;;;;;;5103781;28;20743;-77
2024/01/16 12:31:25;;;;;;;7.67;3.67;;;2.30;99.90;;;;;;5101623;28;20178;-76
2024/01/16 12:33:51;;;;;;;9.83;3.73;;;2.30;99.90;;;;;;5103736;28;20213;-77
2024/01/16 12:36:17;;;;;;;10.80;3.80;;;2.30;99.90;;;;;;5103887;28;20174;-77
2024/01/16 12:38:43;;;;;;;9.03;4.00;;;2.40;99.90;;;;;;5105623;28;20198;-77
2024/01/16 12:41:10;;;;;;;8.27;4.20;;;2.50;99.90;;;;;;5107056;28;20174;-77
2024/01/16 12:43:39;;;;;;;14.33;3.90;;;2.50;99.90;;;;;;5106121;28;20182;-77